Aérodrome :
LOGIN :

S'inscrire | Disclaimer

   EN    FR    IT 

 










Légende :    VFR   VFR Marginal   IFR   IFR Intensif   IFR Très Intensif
Visi : 
Plafond : 
>= 8 km
>= 3000ft
5 à 8 km
1000 à 3000 ft
1500m à 5 km
500 à 1000 ft
800 à 1500m
200 à 500 ft
< 800m
< 200 ft
Symboles :   Orages  Brouillard  Fortes neiges  Fortes précipitations  Vent > 20 kt
SIGMETs :   Divers  Orages  Givrage  Turbulence  Onde Orograph.  Cendres Volcan.






- Altitude de l'aérodrome : 392 ft
- Code IATA : CDG


LFPG - Paris-Aeroport Charles De Gaulle

DERNIER METAR :
  • 290300Z AUTO 03020KT 9999 FEW029 BKN100 OVC120 05/M01 Q1026 BECMG 02020G30KT

METARs EXPIRÉS :
  • 290230Z AUTO 03019KT 9999 FEW031 OVC110 05/M01 Q1026 BECMG 02020G30KT
  • 290200Z AUTO 03020KT CAVOK 06/M01 Q1026 BECMG 02020G30KT
  • 290130Z AUTO 03021G32KT 9999 SCT023 BKN028 BKN120 06/M00 Q1026 NOSIG
  • 290100Z AUTO 03020KT 9999 OVC021 06/01 Q1025 BECMG 02020G30KT

TAF TAF LFPG
Valide du 29 à 00h jusqu'au 30 à 06h UTC


282300Z 2900/3006 02020G30KT 9999 BKN020 TX09/2914Z TNM01/3001Z
TEMPO 2915/2919 03025G40KT
PROB30
TEMPO 2918/2921 -SHRASN
ATIS : +33 1 48 62 10 92



MET'MAP, la Météo Aéronautique d'un coup d'oeil ! - Copyright ORBIFLY Décembre 2007 - Disclaimer

ORBIFLY MET'MAP TEAM :

Programmation & Développement : Alexandra Zaïnal
Sur une idée originale de : Baudouin d'Aumeries
Assistance à la programmation : Marc-Olivier Méhu
Soutien technique & logistique : Manuel Goepfert

Contact : metmap@orbifly.com




SOURCES & CREDITS :

   NOAA